sensor_id;sensor_type;location;lat;lon;timestamp;P1;durP1;ratioP1;P2;durP2;ratioP2
65477;SDS011;53678;39.642;22.430;2022-11-18T00:03:32;51.40;;;30.73;;
65477;SDS011;53678;39.642;22.430;2022-11-18T00:05:57;42.83;;;27.88;;
65477;SDS011;53678;39.642;22.430;2022-11-18T00:08:26;51.58;;;32.05;;
65477;SDS011;53678;39.642;22.430;2022-11-18T00:10:52;45.03;;;29.25;;
65477;SDS011;53678;39.642;22.430;2022-11-18T00:13:20;47.20;;;29.55;;
65477;SDS011;53678;39.642;22.430;2022-11-18T00:16:06;47.03;;;29.70;;
65477;SDS011;53678;39.642;22.430;2022-11-18T00:18:35;41.40;;;27.88;;
65477;SDS011;53678;39.642;22.430;2022-11-18T00:21:11;46.50;;;28.50;;
65477;SDS011;53678;39.642;22.430;2022-11-18T00:23:40;38.58;;;25.70;;
65477;SDS011;53678;39.642;22.430;2022-11-18T00:26:12;39.33;;;25.23;;
65477;SDS011;53678;39.642;22.430;2022-11-18T00:28:39;42.50;;;25.13;;
65477;SDS011;53678;39.642;22.430;2022-11-18T00:31:12;38.88;;;24.58;;
65477;SDS011;53678;39.642;22.430;2022-11-18T00:33:41;36.92;;;24.42;;
65477;SDS011;53678;39.642;22.430;2022-11-18T00:36:08;34.45;;;22.77;;
65477;SDS011;53678;39.642;22.430;2022-11-18T00:38:37;37.05;;;23.30;;
65477;SDS011;53678;39.642;22.430;2022-11-18T00:41:07;40.45;;;23.02;;
65477;SDS011;53678;39.642;22.430;2022-11-18T00:43:38;33.13;;;21.63;;
65477;SDS011;53678;39.642;22.430;2022-11-18T00:46:05;32.72;;;20.90;;
65477;SDS011;53678;39.642;22.430;2022-11-18T00:48:35;38.88;;;22.58;;
65477;SDS011;53678;39.642;22.430;2022-11-18T00:51:09;39.50;;;22.70;;
65477;SDS011;53678;39.642;22.430;2022-11-18T00:53:40;36.72;;;21.30;;
65477;SDS011;53678;39.642;22.430;2022-11-18T00:56:07;39.45;;;21.33;;
65477;SDS011;53678;39.642;22.430;2022-11-18T00:58:36;33.95;;;20.08;;
65477;SDS011;53678;39.642;22.430;2022-11-18T01:01:02;33.88;;;20.50;;
65477;SDS011;53678;39.642;22.430;2022-11-18T01:03:29;37.65;;;21.30;;
65477;SDS011;53678;39.642;22.430;2022-11-18T01:05:55;32.45;;;19.50;;
65477;SDS011;53678;39.642;22.430;2022-11-18T01:08:21;35.60;;;20.23;;
65477;SDS011;53678;39.642;22.430;2022-11-18T01:10:48;31.92;;;19.83;;
65477;SDS011;53678;39.642;22.430;2022-11-18T01:13:16;31.77;;;19.27;;
65477;SDS011;53678;39.642;22.430;2022-11-18T01:15:44;37.40;;;22.90;;
65477;SDS011;53678;39.642;22.430;2022-11-18T01:18:13;36.50;;;21.55;;
65477;SDS011;53678;39.642;22.430;2022-11-18T01:20:40;30.92;;;19.40;;
65477;SDS011;53678;39.642;22.430;2022-11-18T01:23:07;30.30;;;20.77;;
65477;SDS011;53678;39.642;22.430;2022-11-18T01:25:35;34.75;;;21.05;;
65477;SDS011;53678;39.642;22.430;2022-11-18T01:28:02;33.28;;;20.65;;
65477;SDS011;53678;39.642;22.430;2022-11-18T01:30:31;35.47;;;21.50;;
65477;SDS011;53678;39.642;22.430;2022-11-18T01:32:58;36.42;;;22.10;;
65477;SDS011;53678;39.642;22.430;2022-11-18T01:35:24;36.13;;;21.23;;
65477;SDS011;53678;39.642;22.430;2022-11-18T01:37:50;42.33;;;23.02;;
65477;SDS011;53678;39.642;22.430;2022-11-18T01:40:16;36.17;;;22.02;;
65477;SDS011;53678;39.642;22.430;2022-11-18T01:42:42;32.22;;;20.00;;
65477;SDS011;53678;39.642;22.430;2022-11-18T01:47:54;31.88;;;19.25;;
65477;SDS011;53678;39.642;22.430;2022-11-18T01:50:28;28.98;;;18.30;;
65477;SDS011;53678;39.642;22.430;2022-11-18T01:52:56;27.15;;;17.95;;
65477;SDS011;53678;39.642;22.430;2022-11-18T01:55:27;32.10;;;18.35;;
65477;SDS011;53678;39.642;22.430;2022-11-18T01:58:00;32.83;;;18.42;;
65477;SDS011;53678;39.642;22.430;2022-11-18T02:00:32;30.33;;;19.48;;
65477;SDS011;53678;39.642;22.430;2022-11-18T02:02:58;31.05;;;17.85;;
65477;SDS011;53678;39.642;22.430;2022-11-18T02:05:26;36.33;;;18.80;;
65477;SDS011;53678;39.642;22.430;2022-11-18T02:07:53;32.33;;;19.75;;
65477;SDS011;53678;39.642;22.430;2022-11-18T02:10:20;38.88;;;19.48;;
65477;SDS011;53678;39.642;22.430;2022-11-18T02:12:50;30.98;;;17.88;;
65477;SDS011;53678;39.642;22.430;2022-11-18T02:15:18;27.20;;;18.40;;
65477;SDS011;53678;39.642;22.430;2022-11-18T02:17:59;33.25;;;19.33;;
65477;SDS011;53678;39.642;22.430;2022-11-18T02:20:32;25.55;;;17.63;;
65477;SDS011;53678;39.642;22.430;2022-11-18T02:23:16;26.80;;;17.27;;
65477;SDS011;53678;39.642;22.430;2022-11-18T02:28:45;29.77;;;17.00;;
65477;SDS011;53678;39.642;22.430;2022-11-18T02:31:31;28.48;;;17.38;;
65477;SDS011;53678;39.642;22.430;2022-11-18T02:34:30;26.38;;;16.70;;
65477;SDS011;53678;39.642;22.430;2022-11-18T02:39:44;32.47;;;15.88;;
65477;SDS011;53678;39.642;22.430;2022-11-18T02:42:17;27.33;;;16.15;;
65477;SDS011;53678;39.642;22.430;2022-11-18T02:44:46;29.52;;;15.93;;
65477;SDS011;53678;39.642;22.430;2022-11-18T02:47:17;24.08;;;14.85;;
65477;SDS011;53678;39.642;22.430;2022-11-18T02:49:47;27.58;;;15.13;;
65477;SDS011;53678;39.642;22.430;2022-11-18T02:52:18;24.23;;;14.43;;
65477;SDS011;53678;39.642;22.430;2022-11-18T02:54:46;27.90;;;14.57;;
65477;SDS011;53678;39.642;22.430;2022-11-18T02:57:13;26.77;;;14.13;;
65477;SDS011;53678;39.642;22.430;2022-11-18T02:59:40;26.17;;;14.60;;
65477;SDS011;53678;39.642;22.430;2022-11-18T03:02:07;20.02;;;12.48;;
65477;SDS011;53678;39.642;22.430;2022-11-18T03:04:39;19.83;;;12.55;;
65477;SDS011;53678;39.642;22.430;2022-11-18T03:09:43;19.88;;;11.60;;
65477;SDS011;53678;39.642;22.430;2022-11-18T03:12:30;19.23;;;11.23;;
65477;SDS011;53678;39.642;22.430;2022-11-18T03:20:30;27.52;;;11.40;;
65477;SDS011;53678;39.642;22.430;2022-11-18T03:23:02;18.92;;;11.45;;
65477;SDS011;53678;39.642;22.430;2022-11-18T03:25:33;17.40;;;10.27;;
65477;SDS011;53678;39.642;22.430;2022-11-18T03:28:15;13.87;;;9.87;;
65477;SDS011;53678;39.642;22.430;2022-11-18T03:30:47;20.58;;;11.40;;
65477;SDS011;53678;39.642;22.430;2022-11-18T03:33:20;22.25;;;10.68;;
65477;SDS011;53678;39.642;22.430;2022-11-18T03:35:51;18.83;;;9.98;;
65477;SDS011;53678;39.642;22.430;2022-11-18T03:38:21;17.00;;;10.38;;
65477;SDS011;53678;39.642;22.430;2022-11-18T03:40:53;19.10;;;9.93;;
65477;SDS011;53678;39.642;22.430;2022-11-18T03:43:23;19.15;;;10.90;;
65477;SDS011;53678;39.642;22.430;2022-11-18T03:45:55;16.45;;;10.00;;
65477;SDS011;53678;39.642;22.430;2022-11-18T03:48:30;20.02;;;10.45;;
65477;SDS011;53678;39.642;22.430;2022-11-18T03:51:01;19.08;;;11.13;;
65477;SDS011;53678;39.642;22.430;2022-11-18T03:53:33;15.40;;;10.98;;
65477;SDS011;53678;39.642;22.430;2022-11-18T03:56:05;20.55;;;10.82;;
65477;SDS011;53678;39.642;22.430;2022-11-18T03:58:37;22.33;;;11.43;;
65477;SDS011;53678;39.642;22.430;2022-11-18T04:01:17;17.70;;;10.80;;
65477;SDS011;53678;39.642;22.430;2022-11-18T04:03:49;19.50;;;11.02;;
65477;SDS011;53678;39.642;22.430;2022-11-18T04:06:17;17.80;;;10.98;;
65477;SDS011;53678;39.642;22.430;2022-11-18T04:08:54;19.55;;;11.95;;
65477;SDS011;53678;39.642;22.430;2022-11-18T04:11:25;21.73;;;11.70;;
65477;SDS011;53678;39.642;22.430;2022-11-18T04:14:14;17.45;;;10.48;;
65477;SDS011;53678;39.642;22.430;2022-11-18T04:16:43;20.48;;;10.52;;
65477;SDS011;53678;39.642;22.430;2022-11-18T04:19:10;16.33;;;10.30;;
65477;SDS011;53678;39.642;22.430;2022-11-18T04:21:37;20.45;;;10.48;;
65477;SDS011;53678;39.642;22.430;2022-11-18T04:24:03;21.35;;;11.00;;
65477;SDS011;53678;39.642;22.430;2022-11-18T04:26:29;18.42;;;10.27;;
65477;SDS011;53678;39.642;22.430;2022-11-18T04:28:55;17.35;;;10.95;;
65477;SDS011;53678;39.642;22.430;2022-11-18T04:31:21;24.17;;;11.25;;
65477;SDS011;53678;39.642;22.430;2022-11-18T04:33:47;21.58;;;10.55;;
65477;SDS011;53678;39.642;22.430;2022-11-18T04:36:14;16.02;;;10.23;;
65477;SDS011;53678;39.642;22.430;2022-11-18T04:38:40;24.02;;;10.90;;
65477;SDS011;53678;39.642;22.430;2022-11-18T04:41:06;30.20;;;12.00;;
65477;SDS011;53678;39.642;22.430;2022-11-18T04:43:32;30.08;;;11.40;;
65477;SDS011;53678;39.642;22.430;2022-11-18T04:45:58;22.27;;;10.88;;
65477;SDS011;53678;39.642;22.430;2022-11-18T04:48:24;29.00;;;12.60;;
65477;SDS011;53678;39.642;22.430;2022-11-18T04:50:50;38.00;;;13.23;;
65477;SDS011;53678;39.642;22.430;2022-11-18T04:53:15;22.40;;;12.30;;
65477;SDS011;53678;39.642;22.430;2022-11-18T04:55:41;36.17;;;15.10;;
65477;SDS011;53678;39.642;22.430;2022-11-18T04:58:07;32.38;;;14.90;;
65477;SDS011;53678;39.642;22.430;2022-11-18T05:00:33;26.52;;;15.95;;
65477;SDS011;53678;39.642;22.430;2022-11-18T05:02:59;30.17;;;15.00;;
65477;SDS011;53678;39.642;22.430;2022-11-18T05:05:25;31.95;;;15.93;;
65477;SDS011;53678;39.642;22.430;2022-11-18T05:07:51;27.73;;;16.10;;
65477;SDS011;53678;39.642;22.430;2022-11-18T05:10:19;33.47;;;18.15;;
65477;SDS011;53678;39.642;22.430;2022-11-18T05:12:45;31.52;;;18.95;;
65477;SDS011;53678;39.642;22.430;2022-11-18T05:15:17;32.80;;;18.67;;
65477;SDS011;53678;39.642;22.430;2022-11-18T05:17:45;40.90;;;19.10;;
65477;SDS011;53678;39.642;22.430;2022-11-18T05:20:13;34.03;;;18.90;;
65477;SDS011;53678;39.642;22.430;2022-11-18T05:22:39;39.58;;;17.73;;
65477;SDS011;53678;39.642;22.430;2022-11-18T05:25:05;32.40;;;17.15;;
65477;SDS011;53678;39.642;22.430;2022-11-18T05:27:32;32.85;;;18.67;;
65477;SDS011;53678;39.642;22.430;2022-11-18T05:29:59;29.88;;;18.15;;
65477;SDS011;53678;39.642;22.430;2022-11-18T05:32:25;36.17;;;19.63;;
65477;SDS011;53678;39.642;22.430;2022-11-18T05:34:51;36.08;;;19.42;;
65477;SDS011;53678;39.642;22.430;2022-11-18T05:37:17;42.55;;;19.13;;
65477;SDS011;53678;39.642;22.430;2022-11-18T05:39:43;30.27;;;16.98;;
65477;SDS011;53678;39.642;22.430;2022-11-18T05:42:09;50.38;;;19.63;;
65477;SDS011;53678;39.642;22.430;2022-11-18T05:44:54;40.63;;;17.65;;
65477;SDS011;53678;39.642;22.430;2022-11-18T05:47:19;43.13;;;16.45;;
65477;SDS011;53678;39.642;22.430;2022-11-18T05:49:45;32.35;;;17.05;;
65477;SDS011;53678;39.642;22.430;2022-11-18T05:52:11;39.33;;;17.77;;
65477;SDS011;53678;39.642;22.430;2022-11-18T05:54:38;36.75;;;16.25;;
65477;SDS011;53678;39.642;22.430;2022-11-18T05:57:08;40.95;;;15.38;;
65477;SDS011;53678;39.642;22.430;2022-11-18T05:59:34;31.77;;;16.95;;
65477;SDS011;53678;39.642;22.430;2022-11-18T06:02:01;27.42;;;14.18;;
65477;SDS011;53678;39.642;22.430;2022-11-18T06:04:45;27.05;;;12.98;;
65477;SDS011;53678;39.642;22.430;2022-11-18T06:07:22;20.67;;;13.63;;
65477;SDS011;53678;39.642;22.430;2022-11-18T06:09:53;19.02;;;11.30;;
65477;SDS011;53678;39.642;22.430;2022-11-18T06:12:23;20.00;;;12.02;;
65477;SDS011;53678;39.642;22.430;2022-11-18T06:14:57;18.60;;;11.63;;
65477;SDS011;53678;39.642;22.430;2022-11-18T06:17:33;16.27;;;9.93;;
65477;SDS011;53678;39.642;22.430;2022-11-18T06:22:31;17.73;;;10.52;;
65477;SDS011;53678;39.642;22.430;2022-11-18T06:24:59;30.27;;;12.40;;
65477;SDS011;53678;39.642;22.430;2022-11-18T06:27:26;17.08;;;10.25;;
65477;SDS011;53678;39.642;22.430;2022-11-18T06:29:54;15.52;;;11.27;;
65477;SDS011;53678;39.642;22.430;2022-11-18T06:32:20;15.65;;;10.90;;
65477;SDS011;53678;39.642;22.430;2022-11-18T06:34:48;17.50;;;10.85;;
65477;SDS011;53678;39.642;22.430;2022-11-18T06:37:14;20.58;;;10.88;;
65477;SDS011;53678;39.642;22.430;2022-11-18T06:39:42;22.42;;;11.23;;
65477;SDS011;53678;39.642;22.430;2022-11-18T06:42:08;16.88;;;11.05;;
65477;SDS011;53678;39.642;22.430;2022-11-18T06:44:34;18.80;;;10.35;;
65477;SDS011;53678;39.642;22.430;2022-11-18T06:47:00;21.50;;;11.25;;
65477;SDS011;53678;39.642;22.430;2022-11-18T06:49:27;19.13;;;10.32;;
65477;SDS011;53678;39.642;22.430;2022-11-18T06:51:54;15.25;;;9.77;;
65477;SDS011;53678;39.642;22.430;2022-11-18T06:54:20;15.88;;;10.25;;
65477;SDS011;53678;39.642;22.430;2022-11-18T06:56:46;15.73;;;9.75;;
65477;SDS011;53678;39.642;22.430;2022-11-18T06:59:12;16.90;;;9.43;;
65477;SDS011;53678;39.642;22.430;2022-11-18T07:01:39;18.45;;;10.45;;
65477;SDS011;53678;39.642;22.430;2022-11-18T07:04:06;15.13;;;9.95;;
65477;SDS011;53678;39.642;22.430;2022-11-18T07:06:33;16.75;;;9.77;;
65477;SDS011;53678;39.642;22.430;2022-11-18T07:09:01;15.70;;;9.93;;
65477;SDS011;53678;39.642;22.430;2022-11-18T07:11:30;17.60;;;9.95;;
65477;SDS011;53678;39.642;22.430;2022-11-18T07:13:58;25.05;;;11.50;;
65477;SDS011;53678;39.642;22.430;2022-11-18T07:16:25;20.63;;;10.13;;
65477;SDS011;53678;39.642;22.430;2022-11-18T07:18:52;18.48;;;10.27;;
65477;SDS011;53678;39.642;22.430;2022-11-18T07:21:20;24.13;;;10.35;;
65477;SDS011;53678;39.642;22.430;2022-11-18T07:23:48;18.95;;;11.27;;
65477;SDS011;53678;39.642;22.430;2022-11-18T07:26:14;29.23;;;15.93;;
65477;SDS011;53678;39.642;22.430;2022-11-18T07:28:41;18.50;;;10.48;;
65477;SDS011;53678;39.642;22.430;2022-11-18T07:31:09;20.55;;;10.13;;
65477;SDS011;53678;39.642;22.430;2022-11-18T07:33:40;15.88;;;9.80;;
65477;SDS011;53678;39.642;22.430;2022-11-18T07:36:08;20.90;;;10.30;;
65477;SDS011;53678;39.642;22.430;2022-11-18T07:38:39;12.40;;;9.27;;
65477;SDS011;53678;39.642;22.430;2022-11-18T07:44:04;14.80;;;9.63;;
65477;SDS011;53678;39.642;22.430;2022-11-18T07:46:31;17.45;;;9.43;;
65477;SDS011;53678;39.642;22.430;2022-11-18T07:49:00;16.40;;;9.43;;
65477;SDS011;53678;39.642;22.430;2022-11-18T07:51:28;17.98;;;8.77;;
65477;SDS011;53678;39.642;22.430;2022-11-18T07:53:56;12.95;;;7.70;;
65477;SDS011;53678;39.642;22.430;2022-11-18T07:56:22;11.82;;;7.65;;
65477;SDS011;53678;39.642;22.430;2022-11-18T07:58:52;16.85;;;7.82;;
65477;SDS011;53678;39.642;22.430;2022-11-18T08:01:20;13.48;;;8.38;;
65477;SDS011;53678;39.642;22.430;2022-11-18T08:03:47;16.08;;;8.68;;
65477;SDS011;53678;39.642;22.430;2022-11-18T08:06:15;16.63;;;10.68;;
65477;SDS011;53678;39.642;22.430;2022-11-18T08:08:42;19.77;;;9.52;;
65477;SDS011;53678;39.642;22.430;2022-11-18T08:11:11;20.05;;;8.00;;
65477;SDS011;53678;39.642;22.430;2022-11-18T08:13:38;15.02;;;7.72;;
65477;SDS011;53678;39.642;22.430;2022-11-18T08:16:10;19.75;;;10.07;;
65477;SDS011;53678;39.642;22.430;2022-11-18T08:18:38;13.23;;;7.03;;
65477;SDS011;53678;39.642;22.430;2022-11-18T08:21:05;13.95;;;7.93;;
65477;SDS011;53678;39.642;22.430;2022-11-18T08:23:31;14.10;;;8.38;;
65477;SDS011;53678;39.642;22.430;2022-11-18T08:26:05;14.52;;;7.28;;
65477;SDS011;53678;39.642;22.430;2022-11-18T08:28:33;12.10;;;7.30;;
65477;SDS011;53678;39.642;22.430;2022-11-18T08:30:59;17.00;;;8.63;;
65477;SDS011;53678;39.642;22.430;2022-11-18T08:36:03;16.38;;;8.60;;
65477;SDS011;53678;39.642;22.430;2022-11-18T08:38:51;16.67;;;8.15;;
65477;SDS011;53678;39.642;22.430;2022-11-18T08:43:59;12.95;;;8.05;;
65477;SDS011;53678;39.642;22.430;2022-11-18T08:46:26;12.23;;;7.20;;
65477;SDS011;53678;39.642;22.430;2022-11-18T08:48:53;14.38;;;7.32;;
65477;SDS011;53678;39.642;22.430;2022-11-18T08:51:19;12.68;;;6.35;;
65477;SDS011;53678;39.642;22.430;2022-11-18T08:53:45;12.23;;;6.93;;
65477;SDS011;53678;39.642;22.430;2022-11-18T08:56:15;9.38;;;6.53;;
65477;SDS011;53678;39.642;22.430;2022-11-18T08:58:44;10.75;;;6.70;;
65477;SDS011;53678;39.642;22.430;2022-11-18T09:01:11;12.15;;;6.35;;
65477;SDS011;53678;39.642;22.430;2022-11-18T09:03:37;9.23;;;5.32;;
65477;SDS011;53678;39.642;22.430;2022-11-18T09:06:06;10.77;;;5.22;;
65477;SDS011;53678;39.642;22.430;2022-11-18T09:08:43;9.35;;;4.95;;
65477;SDS011;53678;39.642;22.430;2022-11-18T09:11:12;7.63;;;3.92;;
65477;SDS011;53678;39.642;22.430;2022-11-18T09:13:43;7.18;;;3.47;;
65477;SDS011;53678;39.642;22.430;2022-11-18T09:16:09;7.75;;;3.38;;
65477;SDS011;53678;39.642;22.430;2022-11-18T09:18:35;16.15;;;3.95;;
65477;SDS011;53678;39.642;22.430;2022-11-18T09:21:02;8.23;;;3.30;;
65477;SDS011;53678;39.642;22.430;2022-11-18T09:23:32;4.38;;;2.80;;
65477;SDS011;53678;39.642;22.430;2022-11-18T09:26:01;4.97;;;2.90;;
65477;SDS011;53678;39.642;22.430;2022-11-18T09:28:30;7.07;;;3.20;;
65477;SDS011;53678;39.642;22.430;2022-11-18T09:30:56;11.05;;;2.90;;
65477;SDS011;53678;39.642;22.430;2022-11-18T09:33:22;4.43;;;2.53;;
65477;SDS011;53678;39.642;22.430;2022-11-18T09:35:48;8.23;;;2.97;;
65477;SDS011;53678;39.642;22.430;2022-11-18T09:38:15;7.63;;;3.30;;
65477;SDS011;53678;39.642;22.430;2022-11-18T09:46:31;7.38;;;3.40;;
65477;SDS011;53678;39.642;22.430;2022-11-18T09:49:23;4.93;;;3.88;;
65477;SDS011;53678;39.642;22.430;2022-11-18T09:51:53;5.35;;;3.30;;
65477;SDS011;53678;39.642;22.430;2022-11-18T09:54:21;7.15;;;2.72;;
65477;SDS011;53678;39.642;22.430;2022-11-18T09:56:50;5.82;;;3.05;;
65477;SDS011;53678;39.642;22.430;2022-11-18T09:59:17;8.15;;;3.03;;
65477;SDS011;53678;39.642;22.430;2022-11-18T10:01:45;4.65;;;2.70;;
65477;SDS011;53678;39.642;22.430;2022-11-18T10:04:13;5.00;;;2.90;;
65477;SDS011;53678;39.642;22.430;2022-11-18T10:06:41;7.03;;;2.80;;
65477;SDS011;53678;39.642;22.430;2022-11-18T10:14:20;6.45;;;3.35;;
65477;SDS011;53678;39.642;22.430;2022-11-18T10:17:07;6.90;;;2.67;;
65477;SDS011;53678;39.642;22.430;2022-11-18T10:22:37;7.22;;;3.60;;
65477;SDS011;53678;39.642;22.430;2022-11-18T10:25:13;6.25;;;2.88;;
65477;SDS011;53678;39.642;22.430;2022-11-18T10:27:41;5.15;;;2.60;;
65477;SDS011;53678;39.642;22.430;2022-11-18T10:35:24;7.68;;;3.22;;
65477;SDS011;53678;39.642;22.430;2022-11-18T10:51:34;6.28;;;2.80;;
65477;SDS011;53678;39.642;22.430;2022-11-18T10:54:26;6.30;;;2.67;;
65477;SDS011;53678;39.642;22.430;2022-11-18T10:59:29;5.50;;;2.70;;
65477;SDS011;53678;39.642;22.430;2022-11-18T11:02:41;4.88;;;2.30;;
65477;SDS011;53678;39.642;22.430;2022-11-18T11:04:58;6.85;;;2.50;;
65477;SDS011;53678;39.642;22.430;2022-11-18T11:07:27;4.90;;;2.50;;
65477;SDS011;53678;39.642;22.430;2022-11-18T11:12:32;4.70;;;2.20;;
65477;SDS011;53678;39.642;22.430;2022-11-18T11:15:23;5.53;;;2.35;;
65477;SDS011;53678;39.642;22.430;2022-11-18T11:18:02;5.35;;;2.30;;
65477;SDS011;53678;39.642;22.430;2022-11-18T11:20:58;10.73;;;2.50;;
65477;SDS011;53678;39.642;22.430;2022-11-18T11:23:24;4.70;;;2.28;;
65477;SDS011;53678;39.642;22.430;2022-11-18T11:26:02;8.32;;;2.25;;
65477;SDS011;53678;39.642;22.430;2022-11-18T11:28:46;6.03;;;2.17;;
65477;SDS011;53678;39.642;22.430;2022-11-18T11:43:30;3.95;;;1.90;;
65477;SDS011;53678;39.642;22.430;2022-11-18T12:04:50;4.90;;;2.03;;
65477;SDS011;53678;39.642;22.430;2022-11-18T12:07:42;6.75;;;2.17;;
65477;SDS011;53678;39.642;22.430;2022-11-18T12:10:22;4.45;;;1.67;;
65477;SDS011;53678;39.642;22.430;2022-11-18T12:15:41;5.60;;;2.78;;
65477;SDS011;53678;39.642;22.430;2022-11-18T12:18:46;4.10;;;2.10;;
65477;SDS011;53678;39.642;22.430;2022-11-18T12:24:57;6.28;;;2.67;;
65477;SDS011;53678;39.642;22.430;2022-11-18T12:27:02;3.47;;;2.20;;
65477;SDS011;53678;39.642;22.430;2022-11-18T12:37:37;6.38;;;2.70;;
65477;SDS011;53678;39.642;22.430;2022-11-18T12:40:34;8.80;;;2.67;;
65477;SDS011;53678;39.642;22.430;2022-11-18T12:43:01;3.45;;;1.88;;
65477;SDS011;53678;39.642;22.430;2022-11-18T12:45:49;5.68;;;1.92;;
65477;SDS011;53678;39.642;22.430;2022-11-18T12:56:11;6.72;;;3.40;;
65477;SDS011;53678;39.642;22.430;2022-11-18T12:58:51;7.20;;;3.70;;
65477;SDS011;53678;39.642;22.430;2022-11-18T13:01:20;4.75;;;2.10;;
65477;SDS011;53678;39.642;22.430;2022-11-18T13:04:07;8.10;;;2.40;;
65477;SDS011;53678;39.642;22.430;2022-11-18T13:06:46;5.22;;;2.90;;
65477;SDS011;53678;39.642;22.430;2022-11-18T13:09:17;7.75;;;2.22;;
65477;SDS011;53678;39.642;22.430;2022-11-18T13:11:50;3.80;;;2.33;;
65477;SDS011;53678;39.642;22.430;2022-11-18T13:14:27;3.53;;;2.28;;
65477;SDS011;53678;39.642;22.430;2022-11-18T13:20:22;5.85;;;3.47;;
65477;SDS011;53678;39.642;22.430;2022-11-18T13:22:56;6.93;;;2.85;;
65477;SDS011;53678;39.642;22.430;2022-11-18T13:26:01;9.10;;;2.60;;
65477;SDS011;53678;39.642;22.430;2022-11-18T13:36:44;6.95;;;2.75;;
65477;SDS011;53678;39.642;22.430;2022-11-18T13:39:11;12.63;;;3.05;;
65477;SDS011;53678;39.642;22.430;2022-11-18T13:42:03;13.00;;;3.97;;
65477;SDS011;53678;39.642;22.430;2022-11-18T13:44:34;23.70;;;4.70;;
65477;SDS011;53678;39.642;22.430;2022-11-18T13:54:58;10.07;;;3.63;;
65477;SDS011;53678;39.642;22.430;2022-11-18T13:57:26;6.40;;;3.38;;
65477;SDS011;53678;39.642;22.430;2022-11-18T13:59:53;5.50;;;3.50;;
65477;SDS011;53678;39.642;22.430;2022-11-18T14:02:19;7.50;;;3.65;;
65477;SDS011;53678;39.642;22.430;2022-11-18T14:04:53;4.97;;;3.00;;
65477;SDS011;53678;39.642;22.430;2022-11-18T14:09:59;8.88;;;3.50;;
65477;SDS011;53678;39.642;22.430;2022-11-18T14:12:31;10.65;;;4.03;;
65477;SDS011;53678;39.642;22.430;2022-11-18T14:17:56;12.35;;;4.78;;
65477;SDS011;53678;39.642;22.430;2022-11-18T14:20:26;8.98;;;4.80;;
65477;SDS011;53678;39.642;22.430;2022-11-18T14:23:03;11.55;;;5.90;;
65477;SDS011;53678;39.642;22.430;2022-11-18T14:25:31;14.13;;;7.07;;
65477;SDS011;53678;39.642;22.430;2022-11-18T14:33:37;15.77;;;10.73;;
65477;SDS011;53678;39.642;22.430;2022-11-18T14:36:13;17.20;;;9.23;;
65477;SDS011;53678;39.642;22.430;2022-11-18T14:38:50;15.15;;;8.13;;
65477;SDS011;53678;39.642;22.430;2022-11-18T14:41:17;12.88;;;6.53;;
65477;SDS011;53678;39.642;22.430;2022-11-18T14:44:03;8.63;;;4.93;;
65477;SDS011;53678;39.642;22.430;2022-11-18T14:46:33;14.18;;;5.38;;
65477;SDS011;53678;39.642;22.430;2022-11-18T14:49:05;9.13;;;4.93;;
65477;SDS011;53678;39.642;22.430;2022-11-18T14:51:37;13.70;;;5.90;;
65477;SDS011;53678;39.642;22.430;2022-11-18T14:54:04;11.38;;;5.53;;
65477;SDS011;53678;39.642;22.430;2022-11-18T14:56:30;11.00;;;4.50;;
65477;SDS011;53678;39.642;22.430;2022-11-18T14:58:57;10.70;;;3.88;;
65477;SDS011;53678;39.642;22.430;2022-11-18T15:01:23;10.80;;;3.90;;
65477;SDS011;53678;39.642;22.430;2022-11-18T15:03:52;6.47;;;3.10;;
65477;SDS011;53678;39.642;22.430;2022-11-18T15:06:19;7.93;;;2.72;;
65477;SDS011;53678;39.642;22.430;2022-11-18T15:08:49;8.15;;;2.80;;
65477;SDS011;53678;39.642;22.430;2022-11-18T15:11:17;8.50;;;4.00;;
65477;SDS011;53678;39.642;22.430;2022-11-18T15:13:45;4.65;;;3.03;;
65477;SDS011;53678;39.642;22.430;2022-11-18T15:16:13;6.40;;;4.53;;
65477;SDS011;53678;39.642;22.430;2022-11-18T15:18:41;6.55;;;4.65;;
65477;SDS011;53678;39.642;22.430;2022-11-18T15:21:08;11.82;;;5.22;;
65477;SDS011;53678;39.642;22.430;2022-11-18T15:23:35;8.60;;;4.40;;
65477;SDS011;53678;39.642;22.430;2022-11-18T15:26:02;13.65;;;5.40;;
65477;SDS011;53678;39.642;22.430;2022-11-18T15:28:34;11.77;;;6.07;;
65477;SDS011;53678;39.642;22.430;2022-11-18T15:30:59;12.55;;;5.85;;
65477;SDS011;53678;39.642;22.430;2022-11-18T15:33:25;13.90;;;6.22;;
65477;SDS011;53678;39.642;22.430;2022-11-18T15:35:52;11.93;;;6.25;;
65477;SDS011;53678;39.642;22.430;2022-11-18T15:38:18;10.63;;;6.28;;
65477;SDS011;53678;39.642;22.430;2022-11-18T15:40:44;10.45;;;5.75;;
65477;SDS011;53678;39.642;22.430;2022-11-18T15:43:10;10.30;;;6.60;;
65477;SDS011;53678;39.642;22.430;2022-11-18T15:45:36;12.77;;;6.38;;
65477;SDS011;53678;39.642;22.430;2022-11-18T15:48:02;14.80;;;6.80;;
65477;SDS011;53678;39.642;22.430;2022-11-18T15:50:28;18.38;;;6.70;;
65477;SDS011;53678;39.642;22.430;2022-11-18T15:52:54;15.02;;;7.78;;
65477;SDS011;53678;39.642;22.430;2022-11-18T15:55:20;11.23;;;6.20;;
65477;SDS011;53678;39.642;22.430;2022-11-18T15:57:46;12.20;;;7.05;;
65477;SDS011;53678;39.642;22.430;2022-11-18T16:00:12;10.10;;;6.10;;
65477;SDS011;53678;39.642;22.430;2022-11-18T16:02:38;9.82;;;5.15;;
65477;SDS011;53678;39.642;22.430;2022-11-18T16:05:04;9.38;;;4.70;;
65477;SDS011;53678;39.642;22.430;2022-11-18T16:07:30;7.30;;;4.63;;
65477;SDS011;53678;39.642;22.430;2022-11-18T16:09:56;9.02;;;5.07;;
65477;SDS011;53678;39.642;22.430;2022-11-18T16:12:40;15.68;;;6.32;;
65477;SDS011;53678;39.642;22.430;2022-11-18T16:15:13;12.70;;;4.88;;
65477;SDS011;53678;39.642;22.430;2022-11-18T16:17:59;10.50;;;4.50;;
65477;SDS011;53678;39.642;22.430;2022-11-18T16:20:25;8.02;;;4.75;;
65477;SDS011;53678;39.642;22.430;2022-11-18T16:22:52;11.98;;;4.90;;
65477;SDS011;53678;39.642;22.430;2022-11-18T16:25:20;11.45;;;4.72;;
65477;SDS011;53678;39.642;22.430;2022-11-18T16:27:47;11.70;;;4.43;;
65477;SDS011;53678;39.642;22.430;2022-11-18T16:30:13;11.40;;;4.70;;
65477;SDS011;53678;39.642;22.430;2022-11-18T16:32:59;9.30;;;4.25;;
65477;SDS011;53678;39.642;22.430;2022-11-18T16:35:25;10.43;;;4.30;;
65477;SDS011;53678;39.642;22.430;2022-11-18T16:37:53;6.53;;;3.97;;
65477;SDS011;53678;39.642;22.430;2022-11-18T16:40:19;9.75;;;4.65;;
65477;SDS011;53678;39.642;22.430;2022-11-18T16:42:49;10.38;;;5.22;;
65477;SDS011;53678;39.642;22.430;2022-11-18T16:45:16;6.65;;;3.42;;
65477;SDS011;53678;39.642;22.430;2022-11-18T16:47:43;9.02;;;4.25;;
65477;SDS011;53678;39.642;22.430;2022-11-18T16:50:10;8.15;;;3.70;;
65477;SDS011;53678;39.642;22.430;2022-11-18T16:52:36;7.30;;;4.10;;
65477;SDS011;53678;39.642;22.430;2022-11-18T16:55:02;7.38;;;4.10;;
65477;SDS011;53678;39.642;22.430;2022-11-18T16:57:28;7.32;;;3.90;;
65477;SDS011;53678;39.642;22.430;2022-11-18T16:59:55;8.60;;;4.13;;
65477;SDS011;53678;39.642;22.430;2022-11-18T17:02:21;7.05;;;3.78;;
65477;SDS011;53678;39.642;22.430;2022-11-18T17:04:48;7.72;;;4.18;;
65477;SDS011;53678;39.642;22.430;2022-11-18T17:07:14;7.57;;;3.40;;